createdAt,value
2024-05-09T00:00:00.542Z,0.00
2024-05-09T00:01:00.653Z,0.00
2024-05-09T00:02:00.527Z,0.00
2024-05-09T00:03:01.241Z,0.00
2024-05-09T00:04:00.599Z,0.00
2024-05-09T00:05:00.586Z,0.00
2024-05-09T00:06:00.684Z,0.00
2024-05-09T00:07:00.442Z,0.00
2024-05-09T00:07:59.891Z,0.00
2024-05-09T00:09:00.411Z,0.00
2024-05-09T00:10:00.470Z,0.00
2024-05-09T00:11:01.123Z,0.00
2024-05-09T00:12:00.046Z,0.00
2024-05-09T00:13:00.359Z,0.00
2024-05-09T00:13:59.628Z,0.00
2024-05-09T00:14:59.595Z,0.00
2024-05-09T00:15:59.588Z,0.00
2024-05-09T00:16:59.614Z,0.00
2024-05-09T00:17:59.666Z,0.00
2024-05-09T00:18:59.640Z,0.00
2024-05-09T00:20:00.340Z,0.00
2024-05-09T00:20:59.651Z,0.00
2024-05-09T00:21:59.583Z,0.00
2024-05-09T00:22:59.570Z,0.00
2024-05-09T00:23:59.665Z,0.00
2024-05-09T00:24:59.577Z,0.00
2024-05-09T00:26:00.220Z,0.00
2024-05-09T00:27:00.176Z,0.00
2024-05-09T00:28:00.933Z,0.00
2024-05-09T00:29:00.197Z,0.00
2024-05-09T00:29:59.585Z,0.00
2024-05-09T00:30:59.575Z,0.00
2024-05-09T00:31:59.437Z,0.00
2024-05-09T00:32:59.711Z,0.00
2024-05-09T00:34:00.233Z,0.00
2024-05-09T00:34:59.593Z,0.00
2024-05-09T00:36:00.048Z,0.00
2024-05-09T00:37:00.051Z,0.00
2024-05-09T00:38:00.205Z,0.00
2024-05-09T00:39:00.018Z,0.00
2024-05-09T00:39:59.970Z,0.00
2024-05-09T00:40:59.255Z,0.00
2024-05-09T00:41:59.236Z,0.00
2024-05-09T00:42:59.216Z,0.00
2024-05-09T00:43:59.237Z,0.00
2024-05-09T00:44:59.196Z,0.00
2024-05-09T00:45:59.160Z,0.00
2024-05-09T00:46:59.926Z,0.00
2024-05-09T00:47:59.450Z,0.00
2024-05-09T00:48:59.216Z,0.00
2024-05-09T00:49:59.151Z,0.00
2024-05-09T00:50:59.101Z,0.00
2024-05-09T00:51:59.083Z,0.00
2024-05-09T00:52:59.123Z,0.00
2024-05-09T00:53:59.077Z,0.00
2024-05-09T00:54:59.141Z,0.00
2024-05-09T00:55:59.064Z,0.00
2024-05-09T00:56:59.145Z,0.00
2024-05-09T00:57:58.999Z,0.00
2024-05-09T00:58:59.034Z,0.00
2024-05-09T00:59:59.764Z,0.00
2024-05-09T01:00:58.985Z,0.00
2024-05-09T01:01:59.007Z,0.00
2024-05-09T01:02:59.082Z,0.00
2024-05-09T01:03:59.274Z,0.00
2024-05-09T01:04:59.769Z,0.00
2024-05-09T01:05:59.751Z,0.00
2024-05-09T01:07:00.833Z,0.00
2024-05-09T01:07:59.668Z,0.00
2024-05-09T01:08:58.843Z,0.00
2024-05-09T01:09:59.590Z,0.00
2024-05-09T01:10:58.889Z,0.00
2024-05-09T01:11:59.624Z,0.00
2024-05-09T01:12:58.839Z,0.00
2024-05-09T01:13:58.810Z,0.00
2024-05-09T01:14:58.808Z,0.00
2024-05-09T01:15:58.768Z,0.00
2024-05-09T01:16:58.822Z,0.00
2024-05-09T01:17:59.325Z,0.00
2024-05-09T01:18:58.809Z,0.00
2024-05-09T01:19:59.498Z,0.00
2024-05-09T01:20:58.700Z,0.00
2024-05-09T01:21:58.701Z,0.00
2024-05-09T01:22:58.976Z,0.00
2024-05-09T01:23:58.788Z,0.00
2024-05-09T01:24:58.642Z,0.00
2024-05-09T01:25:58.962Z,0.00
2024-05-09T01:26:58.611Z,0.00
2024-05-09T01:27:58.597Z,0.00
2024-05-09T01:28:58.982Z,0.00
2024-05-09T01:29:59.978Z,0.00
2024-05-09T01:30:59.972Z,0.00
2024-05-09T01:31:59.242Z,0.00
2024-05-09T01:32:58.684Z,0.00
2024-05-09T01:33:58.744Z,0.00
2024-05-09T01:34:58.666Z,0.00
2024-05-09T01:35:59.221Z,0.00
2024-05-09T01:36:58.605Z,0.00
2024-05-09T01:37:59.299Z,0.00
2024-05-09T01:38:58.856Z,0.00
2024-05-09T01:39:58.858Z,0.00
2024-05-09T01:40:58.484Z,0.00
2024-05-09T01:41:59.194Z,0.00
2024-05-09T01:43:00.342Z,0.00
2024-05-09T01:43:59.158Z,0.00
2024-05-09T01:44:58.357Z,0.00
2024-05-09T01:45:58.355Z,0.00
2024-05-09T01:46:58.464Z,0.00
2024-05-09T01:47:59.176Z,0.00
2024-05-09T01:48:58.464Z,0.00
2024-05-09T01:49:58.341Z,0.00
2024-05-09T01:50:58.319Z,0.00
2024-05-09T01:51:58.258Z,0.00
2024-05-09T01:52:58.266Z,0.00
2024-05-09T01:53:58.238Z,0.00
2024-05-09T01:55:00.095Z,0.00
2024-05-09T01:55:58.242Z,0.00
2024-05-09T01:56:58.235Z,0.00
2024-05-09T01:57:58.217Z,0.00
2024-05-09T01:58:58.207Z,0.00
2024-05-09T01:59:58.165Z,0.00
2024-05-09T02:00:59.578Z,0.00
2024-05-09T02:01:59.024Z,0.00
2024-05-09T02:02:58.246Z,0.00
2024-05-09T02:03:58.370Z,0.00
2024-05-09T02:04:58.163Z,0.00
2024-05-09T02:05:58.106Z,0.00
2024-05-09T02:06:58.060Z,0.00
2024-05-09T02:07:58.092Z,0.00
2024-05-09T02:08:58.051Z,0.00
2024-05-09T02:09:58.227Z,0.00
2024-05-09T02:10:58.364Z,0.00
2024-05-09T02:11:59.526Z,0.00
2024-05-09T02:12:59.391Z,0.00
2024-05-09T02:13:58.038Z,0.00
2024-05-09T02:14:58.702Z,0.00
2024-05-09T02:15:59.350Z,0.00
2024-05-09T02:16:58.860Z,0.00
2024-05-09T02:17:58.748Z,0.00
2024-05-09T02:18:58.738Z,0.00
2024-05-09T02:19:58.687Z,0.00
2024-05-09T02:20:58.701Z,0.00
2024-05-09T02:21:58.625Z,0.00
2024-05-09T02:22:57.890Z,0.00
2024-05-09T02:23:57.867Z,0.00
2024-05-09T02:24:58.605Z,0.00
2024-05-09T02:25:57.859Z,0.00
2024-05-09T02:26:58.560Z,0.00
2024-05-09T02:27:58.526Z,0.00
2024-05-09T02:28:59.265Z,0.00
2024-05-09T02:29:58.525Z,0.00
2024-05-09T02:30:58.516Z,0.00
2024-05-09T02:31:58.520Z,0.00
2024-05-09T02:32:58.714Z,0.00
2024-05-09T02:33:58.635Z,0.00
2024-05-09T02:34:58.477Z,0.00
2024-05-09T02:35:58.461Z,0.00
2024-05-09T02:36:58.437Z,0.00
2024-05-09T02:37:58.442Z,0.00
2024-05-09T02:38:58.194Z,0.00
2024-05-09T02:39:58.397Z,0.00
2024-05-09T02:40:58.415Z,0.00
2024-05-09T02:41:58.373Z,0.00
2024-05-09T02:42:58.336Z,0.00
2024-05-09T02:43:59.048Z,0.00
2024-05-09T02:44:58.334Z,0.00
2024-05-09T02:45:58.306Z,0.00
2024-05-09T02:46:58.340Z,0.00
2024-05-09T02:47:58.839Z,0.00
2024-05-09T02:48:58.364Z,0.00
2024-05-09T02:49:58.298Z,0.00
2024-05-09T02:50:58.312Z,0.00
2024-05-09T02:51:58.216Z,0.00
2024-05-09T02:52:58.205Z,0.00
2024-05-09T02:53:58.266Z,0.00
2024-05-09T02:54:58.183Z,0.00
2024-05-09T02:55:58.240Z,0.00
2024-05-09T02:56:58.844Z,0.00
2024-05-09T02:57:58.168Z,0.00
2024-05-09T02:58:58.164Z,0.00
2024-05-09T02:59:58.128Z,0.00
2024-05-09T03:00:58.138Z,0.00
2024-05-09T03:01:58.132Z,0.00
2024-05-09T03:02:59.441Z,0.00
2024-05-09T03:03:59.402Z,0.00
2024-05-09T03:04:58.208Z,0.00
2024-05-09T03:05:58.690Z,0.00
2024-05-09T03:06:58.031Z,0.00
2024-05-09T03:07:58.054Z,0.00
2024-05-09T03:08:58.015Z,0.00
2024-05-09T03:09:58.034Z,0.00
2024-05-09T03:10:58.020Z,4.00
2024-05-09T03:11:58.058Z,4.00
2024-05-09T03:12:57.969Z,4.00
2024-05-09T03:13:57.960Z,4.00
2024-05-09T03:14:57.977Z,4.00
2024-05-09T03:15:59.120Z,4.00
2024-05-09T03:16:57.932Z,4.00
2024-05-09T03:17:57.966Z,0.00
2024-05-09T03:18:57.914Z,4.00
2024-05-09T03:19:57.887Z,4.00
2024-05-09T03:20:57.901Z,4.00
2024-05-09T03:21:57.848Z,4.00
2024-05-09T03:22:57.889Z,4.00
2024-05-09T03:23:57.796Z,4.00
2024-05-09T03:24:57.799Z,8.00
2024-05-09T03:25:58.496Z,8.00
2024-05-09T03:26:57.772Z,8.00
2024-05-09T03:27:57.753Z,8.00
2024-05-09T03:28:57.766Z,12.00
2024-05-09T03:29:57.735Z,12.00
2024-05-09T03:30:57.715Z,12.00
2024-05-09T03:31:57.758Z,20.00
2024-05-09T03:32:57.787Z,20.00
2024-05-09T03:33:57.792Z,20.00
2024-05-09T03:34:57.706Z,28.00
2024-05-09T03:35:57.638Z,32.00
2024-05-09T03:36:57.622Z,36.00
2024-05-09T03:37:57.645Z,40.00
2024-05-09T03:38:57.616Z,48.00
2024-05-09T03:39:58.260Z,52.00
2024-05-09T03:40:58.812Z,60.00
2024-05-09T03:41:57.570Z,72.00
2024-05-09T03:42:58.187Z,84.00
2024-05-09T03:43:57.578Z,92.00
2024-05-09T03:44:57.499Z,108.00
2024-05-09T03:45:57.508Z,120.00
2024-05-09T03:46:57.545Z,136.00
2024-05-09T03:47:57.701Z,156.00
2024-05-09T03:48:57.484Z,176.00
2024-05-09T03:49:57.520Z,192.00
2024-05-09T03:50:57.463Z,216.00
2024-05-09T03:51:58.065Z,244.00
2024-05-09T03:52:57.431Z,272.00
2024-05-09T03:53:57.367Z,296.00
2024-05-09T03:54:57.463Z,332.00
2024-05-09T03:55:57.379Z,360.00
2024-05-09T03:56:57.352Z,400.00
2024-05-09T03:57:57.339Z,432.00
2024-05-09T03:58:57.367Z,472.00
2024-05-09T03:59:57.314Z,512.00
2024-05-09T04:00:57.353Z,556.00
2024-05-09T04:01:57.455Z,600.00
2024-05-09T04:02:57.373Z,648.00
2024-05-09T04:03:57.260Z,696.00
2024-05-09T04:04:57.274Z,744.00
2024-05-09T04:05:57.231Z,800.00
2024-05-09T04:06:57.215Z,848.00
2024-05-09T04:07:57.950Z,896.00
2024-05-09T04:08:57.160Z,956.00
2024-05-09T04:09:57.210Z,1020.00
2024-05-09T04:10:57.174Z,1076.00
2024-05-09T04:11:58.519Z,1144.00
2024-05-09T04:12:57.149Z,1200.00
2024-05-09T04:13:57.166Z,1272.00
2024-05-09T04:14:57.109Z,1344.00
2024-05-09T04:15:57.132Z,1404.00
2024-05-09T04:16:57.757Z,1464.00
2024-05-09T04:17:57.044Z,1532.00
2024-05-09T04:18:57.122Z,1612.00
2024-05-09T04:19:58.242Z,1660.00
2024-05-09T04:20:58.242Z,1760.00
2024-05-09T04:21:57.010Z,1836.00
2024-05-09T04:22:57.032Z,1956.00
2024-05-09T04:23:57.034Z,2020.00
2024-05-09T04:24:56.975Z,2124.00
2024-05-09T04:25:57.007Z,2208.00
2024-05-09T04:26:56.987Z,2260.00
2024-05-09T04:27:56.932Z,2380.00
2024-05-09T04:28:57.625Z,2444.00
2024-05-09T04:29:56.901Z,2484.00
2024-05-09T04:30:56.899Z,2660.00
2024-05-09T04:31:57.671Z,2692.00
2024-05-09T04:32:57.037Z,2776.00
2024-05-09T04:33:56.974Z,2896.00
2024-05-09T04:34:56.991Z,2976.00
2024-05-09T04:35:56.830Z,3040.00
2024-05-09T04:36:58.020Z,3180.00
2024-05-09T04:37:56.848Z,3264.00
2024-05-09T04:38:56.778Z,3460.00
2024-05-09T04:39:56.770Z,3564.00
2024-05-09T04:40:56.801Z,3724.00
2024-05-09T04:41:56.744Z,3840.00
2024-05-09T04:42:56.748Z,3972.00
2024-05-09T04:43:56.741Z,4140.00
2024-05-09T04:44:58.720Z,4224.00
2024-05-09T04:45:56.687Z,4516.00
2024-05-09T04:46:56.738Z,4448.00
2024-05-09T04:47:56.930Z,4776.00
2024-05-09T04:48:57.979Z,4808.00
2024-05-09T04:49:57.308Z,4896.00
2024-05-09T04:50:56.647Z,5076.00
2024-05-09T04:51:56.612Z,5100.00
2024-05-09T04:52:56.646Z,5480.00
2024-05-09T04:53:56.556Z,5684.00
2024-05-09T04:54:58.507Z,5776.00
2024-05-09T04:55:57.347Z,5776.00
2024-05-09T04:56:56.543Z,5812.00
2024-05-09T04:57:56.536Z,5980.00
2024-05-09T04:58:56.518Z,6200.00
2024-05-09T04:59:56.500Z,6276.00
2024-05-09T05:00:57.153Z,6272.00
2024-05-09T05:01:56.638Z,6580.00
2024-05-09T05:02:56.569Z,6476.00
2024-05-09T05:03:56.658Z,6388.00
2024-05-09T05:04:56.558Z,6580.00
2024-05-09T05:05:56.471Z,6356.00
2024-05-09T05:06:59.744Z,6524.00
2024-05-09T05:07:56.408Z,6972.00
2024-05-09T05:08:56.369Z,6844.00
2024-05-09T05:09:56.379Z,7088.00
2024-05-09T05:10:56.444Z,7380.00
2024-05-09T05:11:56.392Z,7380.00
2024-05-09T05:12:56.994Z,7972.00
2024-05-09T05:13:57.034Z,8040.00
2024-05-09T05:14:56.314Z,8504.00
2024-05-09T05:15:58.115Z,8752.00
2024-05-09T05:16:56.353Z,8436.00
2024-05-09T05:17:57.126Z,8828.00
2024-05-09T05:18:56.273Z,8168.00
2024-05-09T05:19:56.334Z,7492.00
2024-05-09T05:20:56.488Z,7312.00
2024-05-09T05:21:56.229Z,7292.00
2024-05-09T05:22:56.212Z,7308.00
2024-05-09T05:23:56.149Z,7296.00
2024-05-09T05:24:56.872Z,7352.00
2024-05-09T05:25:56.278Z,7384.00
2024-05-09T05:26:56.161Z,7464.00
2024-05-09T05:27:56.146Z,7524.00
2024-05-09T05:28:56.823Z,7592.00
2024-05-09T05:29:56.112Z,7612.00
2024-05-09T05:30:56.779Z,7656.00
2024-05-09T05:31:56.161Z,7716.00
2024-05-09T05:32:55.650Z,7756.00
2024-05-09T05:33:55.324Z,7780.00
2024-05-09T05:34:56.076Z,7852.00
2024-05-09T05:35:56.018Z,7848.00
2024-05-09T05:36:57.185Z,7924.00
2024-05-09T05:37:56.088Z,8100.00
2024-05-09T05:38:56.052Z,8136.00
2024-05-09T05:39:55.987Z,8160.00
2024-05-09T05:40:56.167Z,8208.00
2024-05-09T05:41:55.926Z,8280.00
2024-05-09T05:42:55.903Z,8348.00
2024-05-09T05:43:55.957Z,8464.00
2024-05-09T05:44:55.902Z,8556.00
2024-05-09T05:45:55.915Z,8588.00
2024-05-09T05:46:55.878Z,8620.00
2024-05-09T05:47:56.102Z,8664.00
2024-05-09T05:48:56.043Z,8740.00
2024-05-09T05:49:55.843Z,8820.00
2024-05-09T05:50:55.996Z,8868.00
2024-05-09T05:51:55.816Z,8872.00
2024-05-09T05:52:55.803Z,8892.00
2024-05-09T05:53:55.770Z,8960.00
2024-05-09T05:54:55.772Z,9004.00
2024-05-09T05:55:55.773Z,9060.00
2024-05-09T05:56:55.710Z,9128.00
2024-05-09T05:57:55.727Z,9216.00
2024-05-09T05:58:55.448Z,9308.00
2024-05-09T05:59:55.672Z,9388.00
2024-05-09T06:00:55.691Z,9424.00
2024-05-09T06:01:55.684Z,9448.00
2024-05-09T06:02:55.717Z,9532.00
2024-05-09T06:03:55.676Z,9608.00
2024-05-09T06:04:55.707Z,9620.00
2024-05-09T06:05:55.647Z,9732.00
2024-05-09T06:06:55.610Z,9748.00
2024-05-09T06:07:55.760Z,9760.00
2024-05-09T06:08:55.609Z,9796.00
2024-05-09T06:09:55.549Z,9848.00
2024-05-09T06:10:55.688Z,9904.00
2024-05-09T06:11:55.622Z,9872.00
2024-05-09T06:12:55.502Z,9864.00
2024-05-09T06:13:55.531Z,9932.00
2024-05-09T06:14:55.458Z,10056.00
2024-05-09T06:15:55.457Z,10036.00
2024-05-09T06:16:58.054Z,9992.00
2024-05-09T06:17:55.575Z,10080.00
2024-05-09T06:18:55.535Z,10148.00
2024-05-09T06:19:55.463Z,10208.00
2024-05-09T06:20:55.484Z,10232.00
2024-05-09T06:21:55.393Z,10908.00
2024-05-09T06:22:55.405Z,17308.00
2024-05-09T06:23:55.353Z,25056.00
2024-05-09T06:24:55.319Z,25120.00
2024-05-09T06:25:55.388Z,24416.00
2024-05-09T06:26:55.314Z,25088.00
2024-05-09T06:27:55.305Z,25312.00
2024-05-09T06:28:55.316Z,25248.00
2024-05-09T06:29:55.245Z,24896.00
2024-05-09T06:30:55.269Z,25120.00
2024-05-09T06:31:58.577Z,25632.00
2024-05-09T06:32:55.341Z,26016.00
2024-05-09T06:33:55.327Z,27392.00
2024-05-09T06:34:55.219Z,29664.00
2024-05-09T06:35:55.187Z,29728.00
2024-05-09T06:36:55.195Z,31008.00
2024-05-09T06:37:55.203Z,30624.00
2024-05-09T06:38:55.158Z,29632.00
2024-05-09T06:39:55.131Z,30464.00
2024-05-09T06:40:55.169Z,30976.00
2024-05-09T06:41:55.128Z,29376.00
2024-05-09T06:42:55.105Z,28288.00
2024-05-09T06:43:55.100Z,30304.00
2024-05-09T06:44:56.291Z,29952.00
2024-05-09T06:45:55.074Z,32448.00
2024-05-09T06:46:58.102Z,32864.00
2024-05-09T06:47:55.136Z,33984.00
2024-05-09T06:48:55.127Z,36416.00
2024-05-09T06:49:55.083Z,37152.00
2024-05-09T06:50:55.052Z,37248.00
2024-05-09T06:51:54.991Z,39680.00
2024-05-09T06:52:54.980Z,41760.00
2024-05-09T06:53:54.916Z,42208.00
2024-05-09T06:54:54.960Z,43584.00
2024-05-09T06:55:54.988Z,45088.00
2024-05-09T06:56:54.920Z,45888.00
2024-05-09T06:57:54.891Z,44576.00
2024-05-09T06:58:54.924Z,47712.00
2024-05-09T06:59:54.889Z,51424.00
2024-05-09T07:00:54.901Z,52832.00
2024-05-09T07:01:54.874Z,47616.00
2024-05-09T07:02:55.735Z,40416.00
2024-05-09T07:03:56.120Z,39456.00
2024-05-09T07:04:54.888Z,34048.00
2024-05-09T07:05:56.003Z,32800.00
2024-05-09T07:06:54.781Z,31680.00
2024-05-09T07:07:56.016Z,27776.00
2024-05-09T07:08:54.821Z,28864.00
2024-05-09T07:09:54.733Z,28640.00
2024-05-09T07:10:54.792Z,28416.00
2024-05-09T07:11:54.763Z,28992.00
2024-05-09T07:12:54.661Z,29120.00
2024-05-09T07:13:54.693Z,29184.00
2024-05-09T07:14:54.670Z,30656.00
2024-05-09T07:15:54.670Z,29184.00
2024-05-09T07:16:54.738Z,32192.00
2024-05-09T07:17:54.767Z,30944.00
2024-05-09T07:18:54.871Z,30592.00
2024-05-09T07:19:54.617Z,30080.00
2024-05-09T07:20:54.610Z,30240.00
2024-05-09T07:21:54.549Z,29888.00
2024-05-09T07:22:54.567Z,29920.00
2024-05-09T07:23:54.596Z,30944.00
2024-05-09T07:24:54.532Z,32960.00
2024-05-09T07:25:54.630Z,52416.00
2024-05-09T07:26:54.484Z,105568.00
2024-05-09T07:27:54.488Z,96064.00
2024-05-09T07:28:54.520Z,80736.00
2024-05-09T07:29:54.460Z,62304.00
2024-05-09T07:30:54.455Z,59456.00
2024-05-09T07:31:54.450Z,67552.00
2024-05-09T07:32:54.530Z,58656.00
2024-05-09T07:33:54.503Z,57568.00
2024-05-09T07:34:54.441Z,56128.00
2024-05-09T07:35:54.376Z,59744.00
2024-05-09T07:36:54.345Z,57216.00
2024-05-09T07:37:54.496Z,58368.00
2024-05-09T07:38:54.334Z,63520.00
2024-05-09T07:39:54.345Z,59904.00
2024-05-09T07:40:54.370Z,62080.00
2024-05-09T07:41:54.276Z,65376.00
2024-05-09T07:42:54.300Z,64256.00
2024-05-09T07:43:54.370Z,67648.00
2024-05-09T07:44:55.538Z,67040.00
2024-05-09T07:45:56.336Z,66976.00
2024-05-09T07:48:13.757Z,67872.00
2024-05-09T07:49:44.023Z,65248.00
2024-05-09T07:50:35.469Z,65952.00
2024-05-09T07:52:37.913Z,63904.00
2024-05-09T07:53:57.107Z,67520.00
2024-05-09T07:54:55.262Z,62624.00
2024-05-09T07:55:54.303Z,51584.00
2024-05-09T07:56:54.638Z,54336.00
2024-05-09T07:57:54.819Z,58432.00
2024-05-09T07:58:54.580Z,58304.00
2024-05-09T07:59:54.032Z,58016.00
2024-05-09T08:00:54.114Z,50816.00
2024-05-09T08:01:54.104Z,49408.00
2024-05-09T08:02:54.060Z,58976.00
2024-05-09T08:03:54.944Z,59072.00
2024-05-09T08:04:54.050Z,55424.00
2024-05-09T08:05:54.025Z,57344.00
2024-05-09T08:06:54.017Z,63328.00
2024-05-09T08:07:53.953Z,65760.00
2024-05-09T08:08:53.989Z,61952.00
2024-05-09T08:09:53.970Z,58048.00
2024-05-09T08:10:53.990Z,55104.00
2024-05-09T08:11:54.078Z,57664.00
2024-05-09T08:12:54.005Z,63520.00
2024-05-09T08:13:53.882Z,64672.00
2024-05-09T08:14:53.835Z,58528.00
2024-05-09T08:15:53.875Z,53088.00
2024-05-09T08:16:53.915Z,57952.00
2024-05-09T08:17:53.920Z,62976.00
2024-05-09T08:18:53.890Z,66400.00
2024-05-09T08:19:53.797Z,67200.00
2024-05-09T08:20:53.788Z,60800.00
2024-05-09T08:21:53.778Z,52480.00
2024-05-09T08:22:53.752Z,49568.00
2024-05-09T08:23:53.740Z,52992.00
2024-05-09T08:24:53.765Z,58112.00
2024-05-09T08:25:53.706Z,58208.00
2024-05-09T08:26:53.699Z,53280.00
2024-05-09T08:27:53.733Z,52768.00
2024-05-09T08:28:53.661Z,58592.00
2024-05-09T08:29:53.734Z,60800.00
2024-05-09T08:30:53.760Z,57696.00
2024-05-09T08:31:53.714Z,57760.00
2024-05-09T08:32:53.722Z,66528.00
2024-05-09T08:33:53.742Z,71680.00
2024-05-09T08:34:53.672Z,61344.00
2024-05-09T08:35:53.597Z,61344.00
2024-05-09T08:36:54.199Z,75520.00
2024-05-09T08:37:53.669Z,84064.00
2024-05-09T08:38:53.535Z,81504.00
2024-05-09T08:39:54.220Z,72032.00
2024-05-09T08:40:53.567Z,68192.00
2024-05-09T08:41:53.507Z,74656.00
2024-05-09T08:42:53.538Z,78816.00
2024-05-09T08:43:53.491Z,46944.00
2024-05-09T08:44:53.511Z,32704.00
2024-05-09T08:45:54.230Z,35520.00
2024-05-09T08:46:53.453Z,71136.00
2024-05-09T08:47:53.458Z,56288.00
2024-05-09T08:48:53.651Z,26400.00
2024-05-09T08:49:53.446Z,15532.00
2024-05-09T08:50:53.173Z,15724.00
2024-05-09T08:51:53.423Z,19072.00
2024-05-09T08:52:53.355Z,26752.00
2024-05-09T08:53:53.343Z,87552.00
2024-05-09T08:54:53.430Z,33856.00
2024-05-09T08:55:53.323Z,74432.00
2024-05-09T08:56:54.514Z,72896.00
2024-05-09T08:57:52.658Z,46464.00
2024-05-09T08:58:53.278Z,19264.00
2024-05-09T08:59:53.280Z,24480.00
2024-05-09T09:00:53.334Z,97152.00
2024-05-09T09:01:53.331Z,36256.00
2024-05-09T09:02:53.230Z,22240.00
2024-05-09T09:03:53.394Z,22208.00
2024-05-09T09:04:53.280Z,17400.00
2024-05-09T09:05:53.354Z,20896.00
2024-05-09T09:06:54.876Z,89984.00
2024-05-09T09:07:53.228Z,85728.00
2024-05-09T09:08:52.870Z,18624.00
2024-05-09T09:09:53.336Z,15868.00
2024-05-09T09:10:53.196Z,22208.00
2024-05-09T09:11:53.174Z,83360.00
2024-05-09T09:12:53.107Z,48384.00
2024-05-09T09:13:53.092Z,61216.00
2024-05-09T09:14:53.734Z,16992.00
2024-05-09T09:15:52.872Z,19808.00
2024-05-09T09:16:52.502Z,70848.00
2024-05-09T09:17:53.051Z,53088.00
2024-05-09T09:18:53.326Z,23424.00
2024-05-09T09:19:53.065Z,20544.00
2024-05-09T09:20:52.794Z,23424.00
2024-05-09T09:21:53.018Z,21728.00
2024-05-09T09:22:52.564Z,25600.00
2024-05-09T09:23:52.996Z,25408.00
2024-05-09T09:24:52.986Z,49984.00
2024-05-09T09:25:52.916Z,30432.00
2024-05-09T09:26:52.934Z,23104.00
2024-05-09T09:27:52.951Z,75584.00
2024-05-09T09:28:52.336Z,25696.00
2024-05-09T09:29:52.355Z,83424.00
2024-05-09T09:30:52.969Z,42112.00
2024-05-09T09:31:52.462Z,93120.00
2024-05-09T09:32:52.593Z,90240.00
2024-05-09T09:33:52.708Z,90144.00
2024-05-09T09:34:52.090Z,95328.00
2024-05-09T09:35:52.037Z,92864.00
2024-05-09T09:36:52.874Z,92576.00
2024-05-09T09:37:52.011Z,100064.00
2024-05-09T09:38:52.020Z,101440.00
2024-05-09T09:39:52.033Z,101888.00
2024-05-09T09:40:52.083Z,99936.00
2024-05-09T09:41:52.015Z,20736.00
2024-05-09T09:42:52.794Z,20256.00
2024-05-09T09:43:52.062Z,21504.00
2024-05-09T09:45:01.868Z,62688.00
2024-05-09T09:45:54.046Z,102816.00
2024-05-09T09:46:52.052Z,47168.00
2024-05-09T09:47:52.161Z,19968.00
2024-05-09T09:48:51.949Z,18752.00
2024-05-09T09:49:52.157Z,20576.00
2024-05-09T09:50:52.706Z,59072.00
2024-05-09T09:51:52.608Z,105568.00
2024-05-09T09:52:52.555Z,110176.00
2024-05-09T09:53:51.799Z,25728.00
2024-05-09T09:54:52.553Z,109888.00
2024-05-09T09:55:52.553Z,60160.00
2024-05-09T09:56:51.836Z,27200.00
2024-05-09T09:57:51.883Z,23904.00
2024-05-09T09:58:52.482Z,22432.00
2024-05-09T09:59:51.838Z,25536.00
2024-05-09T10:00:51.906Z,25760.00
2024-05-09T10:01:52.537Z,101728.00
2024-05-09T10:02:53.174Z,114144.00
2024-05-09T10:03:52.574Z,32448.00
2024-05-09T10:04:52.547Z,29056.00
2024-05-09T10:05:52.460Z,30944.00
2024-05-09T10:06:51.773Z,36192.00
2024-05-09T10:07:52.349Z,42208.00
2024-05-09T10:08:51.636Z,102720.00
2024-05-09T10:09:51.657Z,105888.00
2024-05-09T10:10:51.803Z,106848.00
2024-05-09T10:11:54.416Z,97344.00
2024-05-09T10:12:53.410Z,93312.00
2024-05-09T10:13:52.287Z,46176.00
2024-05-09T10:14:51.611Z,91968.00
2024-05-09T10:15:51.960Z,78048.00
2024-05-09T10:16:51.485Z,77280.00
2024-05-09T10:17:52.376Z,89024.00
2024-05-09T10:18:52.650Z,100608.00
2024-05-09T10:19:51.813Z,30432.00
2024-05-09T10:20:52.190Z,32544.00
2024-05-09T10:21:51.687Z,29888.00
2024-05-09T10:22:51.504Z,30944.00
2024-05-09T10:23:51.632Z,28512.00
2024-05-09T10:24:52.176Z,29664.00
2024-05-09T10:25:51.628Z,30336.00
2024-05-09T10:26:51.629Z,30080.00
2024-05-09T10:27:52.186Z,29728.00
2024-05-09T10:28:51.570Z,29888.00
2024-05-09T10:29:51.637Z,31904.00
2024-05-09T10:30:52.185Z,32448.00
2024-05-09T10:31:51.719Z,33152.00
2024-05-09T10:32:51.688Z,33216.00
2024-05-09T10:33:52.642Z,33696.00
2024-05-09T10:34:51.548Z,35936.00
2024-05-09T10:35:51.631Z,124544.00
2024-05-09T10:36:53.272Z,111968.00
2024-05-09T10:37:51.632Z,97920.00
2024-05-09T10:38:51.634Z,100768.00
2024-05-09T10:39:51.708Z,107872.00
2024-05-09T10:40:51.675Z,109472.00
2024-05-09T10:41:51.642Z,104128.00
2024-05-09T10:42:51.915Z,100224.00
2024-05-09T10:43:51.770Z,101440.00
2024-05-09T10:44:51.671Z,102816.00
2024-05-09T10:45:51.776Z,96160.00
2024-05-09T10:46:51.116Z,92416.00
2024-05-09T10:47:52.117Z,96672.00
2024-05-09T10:48:51.187Z,104416.00
2024-05-09T10:49:51.889Z,34912.00
2024-05-09T10:50:51.791Z,55904.00
2024-05-09T10:51:51.827Z,109984.00
2024-05-09T10:52:51.322Z,97728.00
2024-05-09T10:53:51.749Z,111936.00
2024-05-09T10:54:51.090Z,70272.00
2024-05-09T10:55:51.714Z,116576.00
2024-05-09T10:56:51.615Z,111648.00
2024-05-09T10:57:51.767Z,86368.00
2024-05-09T10:58:50.910Z,40416.00
2024-05-09T10:59:39.067Z,36448.00
2024-05-09T11:00:53.087Z,39680.00
2024-05-09T11:01:53.015Z,33696.00
2024-05-09T11:02:51.043Z,31584.00
2024-05-09T11:03:51.184Z,31808.00
2024-05-09T11:04:51.820Z,35328.00
2024-05-09T11:05:52.349Z,29504.00
2024-05-09T11:06:50.856Z,30432.00
2024-05-09T11:07:50.807Z,40704.00
2024-05-09T11:08:52.786Z,60800.00
2024-05-09T11:09:50.881Z,118016.00
2024-05-09T11:10:52.955Z,57056.00
2024-05-09T11:11:51.550Z,40544.00
2024-05-09T11:12:50.807Z,111488.00
2024-05-09T11:13:50.735Z,64608.00
2024-05-09T11:14:51.392Z,33312.00
2024-05-09T11:15:51.533Z,26496.00
2024-05-09T11:16:51.487Z,44864.00
2024-05-09T11:17:50.837Z,105600.00
2024-05-09T11:18:51.616Z,119936.00
2024-05-09T11:19:52.794Z,90848.00
2024-05-09T11:20:51.487Z,58720.00
2024-05-09T11:21:52.702Z,55744.00
2024-05-09T11:22:52.584Z,41152.00
2024-05-09T11:23:50.838Z,45888.00
2024-05-09T11:24:52.842Z,37952.00
2024-05-09T11:25:51.332Z,24416.00
2024-05-09T11:26:50.694Z,36864.00
2024-05-09T11:27:51.420Z,115168.00
2024-05-09T11:28:51.276Z,113632.00
2024-05-09T11:29:50.780Z,111712.00
2024-05-09T11:30:51.318Z,109248.00
2024-05-09T11:31:51.259Z,106272.00
2024-05-09T11:32:51.324Z,113152.00
2024-05-09T11:33:51.288Z,123936.00
2024-05-09T11:34:51.217Z,30944.00
2024-05-09T11:35:51.212Z,37504.00
2024-05-09T11:36:51.232Z,31584.00
2024-05-09T11:37:51.169Z,28160.00
2024-05-09T11:38:51.136Z,106848.00
2024-05-09T11:39:51.155Z,30688.00
2024-05-09T11:40:51.813Z,32096.00
2024-05-09T11:41:51.155Z,86304.00
2024-05-09T11:42:53.488Z,110400.00
2024-05-09T11:43:51.064Z,75712.00
2024-05-09T11:44:51.078Z,67360.00
2024-05-09T11:45:51.737Z,41472.00
2024-05-09T11:46:50.290Z,22304.00
2024-05-09T11:47:52.309Z,23968.00
2024-05-09T11:48:52.309Z,27008.00
2024-05-09T11:49:52.253Z,127552.00
2024-05-09T11:50:52.232Z,123360.00
2024-05-09T11:51:52.219Z,118560.00
2024-05-09T11:52:52.193Z,114368.00
2024-05-09T11:53:52.233Z,105792.00
2024-05-09T11:54:52.192Z,101312.00
2024-05-09T11:55:52.174Z,110304.00
2024-05-09T11:56:50.934Z,88864.00
2024-05-09T11:57:52.188Z,122752.00
2024-05-09T11:58:52.103Z,47456.00
2024-05-09T11:59:52.077Z,90496.00
2024-05-09T12:00:50.993Z,78336.00
2024-05-09T12:01:52.104Z,101792.00
2024-05-09T12:02:52.130Z,99072.00
2024-05-09T12:03:52.361Z,94976.00
2024-05-09T12:04:52.092Z,85472.00
2024-05-09T12:05:50.872Z,78016.00
2024-05-09T12:06:50.832Z,74464.00
2024-05-09T12:07:50.752Z,76544.00
2024-05-09T12:08:50.769Z,72352.00
2024-05-09T12:09:50.776Z,61792.00
2024-05-09T12:10:50.892Z,32768.00
2024-05-09T12:11:51.449Z,43328.00
2024-05-09T12:12:51.387Z,78240.00
2024-05-09T12:13:50.698Z,23936.00
2024-05-09T12:14:50.702Z,85088.00
2024-05-09T12:15:50.693Z,86688.00
2024-05-09T12:16:51.378Z,87520.00